sensor_id;sensor_type;location;lat;lon;timestamp;temperature;humidity
30628;DHT22;17394;50.890;4.724;2023-04-24T00:00:54;9.20;99.90
30628;DHT22;17394;50.890;4.724;2023-04-24T00:03:24;9.30;99.90
30628;DHT22;17394;50.890;4.724;2023-04-24T00:05:51;9.30;99.90
30628;DHT22;17394;50.890;4.724;2023-04-24T00:08:17;9.30;99.90
30628;DHT22;17394;50.890;4.724;2023-04-24T00:10:43;9.30;99.90
30628;DHT22;17394;50.890;4.724;2023-04-24T00:13:09;9.30;99.90
30628;DHT22;17394;50.890;4.724;2023-04-24T00:15:34;9.20;99.90
30628;DHT22;17394;50.890;4.724;2023-04-24T00:18:00;9.30;99.90
30628;DHT22;17394;50.890;4.724;2023-04-24T00:20:28;9.30;99.90
30628;DHT22;17394;50.890;4.724;2023-04-24T00:23:01;9.30;99.90
30628;DHT22;17394;50.890;4.724;2023-04-24T00:25:26;9.30;99.90
30628;DHT22;17394;50.890;4.724;2023-04-24T00:27:52;9.30;99.90
30628;DHT22;17394;50.890;4.724;2023-04-24T00:30:17;9.30;99.90
30628;DHT22;17394;50.890;4.724;2023-04-24T00:32:43;9.30;99.90
30628;DHT22;17394;50.890;4.724;2023-04-24T00:35:09;9.30;99.90
30628;DHT22;17394;50.890;4.724;2023-04-24T00:37:36;9.30;99.90
30628;DHT22;17394;50.890;4.724;2023-04-24T00:40:02;9.20;99.90
30628;DHT22;17394;50.890;4.724;2023-04-24T00:42:28;9.30;99.90
30628;DHT22;17394;50.890;4.724;2023-04-24T00:44:54;9.20;99.90
30628;DHT22;17394;50.890;4.724;2023-04-24T00:47:19;9.20;99.90
30628;DHT22;17394;50.890;4.724;2023-04-24T00:49:47;9.20;99.90
30628;DHT22;17394;50.890;4.724;2023-04-24T00:52:13;9.10;99.90
30628;DHT22;17394;50.890;4.724;2023-04-24T00:54:46;9.00;99.90
30628;DHT22;17394;50.890;4.724;2023-04-24T00:57:12;8.90;99.90
30628;DHT22;17394;50.890;4.724;2023-04-24T00:59:38;8.90;99.90
30628;DHT22;17394;50.890;4.724;2023-04-24T01:02:07;8.90;99.90
30628;DHT22;17394;50.890;4.724;2023-04-24T01:04:32;8.80;99.90
30628;DHT22;17394;50.890;4.724;2023-04-24T01:06:58;8.80;99.90
30628;DHT22;17394;50.890;4.724;2023-04-24T01:09:24;8.80;99.90
30628;DHT22;17394;50.890;4.724;2023-04-24T01:11:50;8.80;99.90
30628;DHT22;17394;50.890;4.724;2023-04-24T01:14:16;8.80;99.90
30628;DHT22;17394;50.890;4.724;2023-04-24T01:16:42;8.80;99.90
30628;DHT22;17394;50.890;4.724;2023-04-24T01:19:07;8.90;99.90
30628;DHT22;17394;50.890;4.724;2023-04-24T01:21:36;8.80;99.90
30628;DHT22;17394;50.890;4.724;2023-04-24T01:24:02;8.90;99.90
30628;DHT22;17394;50.890;4.724;2023-04-24T01:26:28;8.90;99.90
30628;DHT22;17394;50.890;4.724;2023-04-24T01:28:53;9.00;99.90
30628;DHT22;17394;50.890;4.724;2023-04-24T01:31:19;8.90;99.90
30628;DHT22;17394;50.890;4.724;2023-04-24T01:33:45;9.00;99.90
30628;DHT22;17394;50.890;4.724;2023-04-24T01:36:11;9.00;99.90
30628;DHT22;17394;50.890;4.724;2023-04-24T01:38:37;9.00;99.90
30628;DHT22;17394;50.890;4.724;2023-04-24T01:41:02;9.00;99.90
30628;DHT22;17394;50.890;4.724;2023-04-24T01:43:29;9.00;99.90
30628;DHT22;17394;50.890;4.724;2023-04-24T01:45:54;9.00;99.90
30628;DHT22;17394;50.890;4.724;2023-04-24T01:48:20;9.00;99.90
30628;DHT22;17394;50.890;4.724;2023-04-24T01:50:46;9.00;99.90
30628;DHT22;17394;50.890;4.724;2023-04-24T01:53:11;9.00;99.90
30628;DHT22;17394;50.890;4.724;2023-04-24T01:55:37;9.00;99.90
30628;DHT22;17394;50.890;4.724;2023-04-24T01:58:03;8.90;99.90
30628;DHT22;17394;50.890;4.724;2023-04-24T02:00:28;8.90;99.90
30628;DHT22;17394;50.890;4.724;2023-04-24T02:02:54;8.80;99.90
30628;DHT22;17394;50.890;4.724;2023-04-24T02:05:20;8.80;99.90
30628;DHT22;17394;50.890;4.724;2023-04-24T02:07:45;8.80;99.90
30628;DHT22;17394;50.890;4.724;2023-04-24T02:10:11;8.70;99.90
30628;DHT22;17394;50.890;4.724;2023-04-24T02:12:37;8.70;99.90
30628;DHT22;17394;50.890;4.724;2023-04-24T02:15:03;8.60;99.90
30628;DHT22;17394;50.890;4.724;2023-04-24T02:17:29;8.60;99.90
30628;DHT22;17394;50.890;4.724;2023-04-24T02:19:54;8.60;99.90
30628;DHT22;17394;50.890;4.724;2023-04-24T02:22:20;8.60;99.90
30628;DHT22;17394;50.890;4.724;2023-04-24T02:24:46;8.60;99.90
30628;DHT22;17394;50.890;4.724;2023-04-24T02:27:11;8.60;99.90
30628;DHT22;17394;50.890;4.724;2023-04-24T02:29:37;8.60;99.90
30628;DHT22;17394;50.890;4.724;2023-04-24T02:32:02;8.60;99.90
30628;DHT22;17394;50.890;4.724;2023-04-24T02:34:28;8.50;99.90
30628;DHT22;17394;50.890;4.724;2023-04-24T02:36:54;8.50;99.90
30628;DHT22;17394;50.890;4.724;2023-04-24T02:39:19;8.40;99.90
30628;DHT22;17394;50.890;4.724;2023-04-24T02:41:46;8.40;99.90
30628;DHT22;17394;50.890;4.724;2023-04-24T02:44:12;8.40;99.90
30628;DHT22;17394;50.890;4.724;2023-04-24T02:46:37;8.40;99.90
30628;DHT22;17394;50.890;4.724;2023-04-24T02:49:03;8.40;99.90
30628;DHT22;17394;50.890;4.724;2023-04-24T02:51:29;8.40;99.90
30628;DHT22;17394;50.890;4.724;2023-04-24T02:53:54;8.40;99.90
30628;DHT22;17394;50.890;4.724;2023-04-24T02:56:20;8.40;99.90
30628;DHT22;17394;50.890;4.724;2023-04-24T02:58:46;8.40;99.90
30628;DHT22;17394;50.890;4.724;2023-04-24T03:01:12;8.40;99.90
30628;DHT22;17394;50.890;4.724;2023-04-24T03:03:38;8.30;99.90
30628;DHT22;17394;50.890;4.724;2023-04-24T03:06:04;8.30;99.90
30628;DHT22;17394;50.890;4.724;2023-04-24T03:08:31;8.30;99.90
30628;DHT22;17394;50.890;4.724;2023-04-24T03:10:57;8.30;99.90
30628;DHT22;17394;50.890;4.724;2023-04-24T03:13:22;8.20;99.90
30628;DHT22;17394;50.890;4.724;2023-04-24T03:15:48;8.20;99.90
30628;DHT22;17394;50.890;4.724;2023-04-24T03:18:14;8.20;99.90
30628;DHT22;17394;50.890;4.724;2023-04-24T03:20:39;8.20;99.90
30628;DHT22;17394;50.890;4.724;2023-04-24T03:23:05;8.20;99.90
30628;DHT22;17394;50.890;4.724;2023-04-24T03:25:30;8.20;99.90
30628;DHT22;17394;50.890;4.724;2023-04-24T03:27:56;8.10;99.90
30628;DHT22;17394;50.890;4.724;2023-04-24T03:30:22;8.20;99.90
30628;DHT22;17394;50.890;4.724;2023-04-24T03:32:47;8.10;99.90
30628;DHT22;17394;50.890;4.724;2023-04-24T03:35:13;8.10;99.90
30628;DHT22;17394;50.890;4.724;2023-04-24T03:37:39;8.20;99.90
30628;DHT22;17394;50.890;4.724;2023-04-24T03:40:05;8.20;99.90
30628;DHT22;17394;50.890;4.724;2023-04-24T03:42:32;8.20;99.90
30628;DHT22;17394;50.890;4.724;2023-04-24T03:44:57;8.20;99.90
30628;DHT22;17394;50.890;4.724;2023-04-24T03:47:23;8.10;99.90
30628;DHT22;17394;50.890;4.724;2023-04-24T03:49:49;8.10;99.90
30628;DHT22;17394;50.890;4.724;2023-04-24T03:52:15;8.10;99.90
30628;DHT22;17394;50.890;4.724;2023-04-24T03:54:41;8.10;99.90
30628;DHT22;17394;50.890;4.724;2023-04-24T03:57:06;8.10;99.90
30628;DHT22;17394;50.890;4.724;2023-04-24T03:59:32;8.10;99.90
30628;DHT22;17394;50.890;4.724;2023-04-24T04:01:57;8.10;99.90
30628;DHT22;17394;50.890;4.724;2023-04-24T04:04:23;8.10;99.90
30628;DHT22;17394;50.890;4.724;2023-04-24T04:06:49;8.10;99.90
30628;DHT22;17394;50.890;4.724;2023-04-24T04:09:14;8.10;99.90
30628;DHT22;17394;50.890;4.724;2023-04-24T04:11:40;8.10;99.90
30628;DHT22;17394;50.890;4.724;2023-04-24T04:14:06;8.10;99.90
30628;DHT22;17394;50.890;4.724;2023-04-24T04:16:32;8.10;99.90
30628;DHT22;17394;50.890;4.724;2023-04-24T04:18:57;8.10;99.90
30628;DHT22;17394;50.890;4.724;2023-04-24T04:21:23;8.10;99.90
30628;DHT22;17394;50.890;4.724;2023-04-24T04:23:49;8.10;99.90
30628;DHT22;17394;50.890;4.724;2023-04-24T04:26:15;8.20;99.90
30628;DHT22;17394;50.890;4.724;2023-04-24T04:28:40;8.10;99.90
30628;DHT22;17394;50.890;4.724;2023-04-24T04:31:06;8.20;99.90
30628;DHT22;17394;50.890;4.724;2023-04-24T04:33:33;8.10;99.90
30628;DHT22;17394;50.890;4.724;2023-04-24T04:35:59;8.10;99.90
30628;DHT22;17394;50.890;4.724;2023-04-24T04:38:25;8.20;99.90
30628;DHT22;17394;50.890;4.724;2023-04-24T04:40:55;8.10;99.90
30628;DHT22;17394;50.890;4.724;2023-04-24T04:43:22;8.10;99.90
30628;DHT22;17394;50.890;4.724;2023-04-24T04:45:49;8.20;99.90
30628;DHT22;17394;50.890;4.724;2023-04-24T04:48:16;8.10;99.90
30628;DHT22;17394;50.890;4.724;2023-04-24T04:50:44;8.10;99.90
30628;DHT22;17394;50.890;4.724;2023-04-24T04:53:10;8.10;99.90
30628;DHT22;17394;50.890;4.724;2023-04-24T04:55:36;8.20;99.90
30628;DHT22;17394;50.890;4.724;2023-04-24T04:58:01;8.20;99.90
30628;DHT22;17394;50.890;4.724;2023-04-24T05:00:27;8.10;99.90
30628;DHT22;17394;50.890;4.724;2023-04-24T05:02:54;8.20;99.90
30628;DHT22;17394;50.890;4.724;2023-04-24T05:05:20;8.20;99.90
30628;DHT22;17394;50.890;4.724;2023-04-24T05:07:45;8.10;99.90
30628;DHT22;17394;50.890;4.724;2023-04-24T05:10:11;8.20;99.90
30628;DHT22;17394;50.890;4.724;2023-04-24T05:12:37;8.10;99.90
30628;DHT22;17394;50.890;4.724;2023-04-24T05:15:03;8.10;99.90
30628;DHT22;17394;50.890;4.724;2023-04-24T05:17:28;8.10;99.90
30628;DHT22;17394;50.890;4.724;2023-04-24T05:19:54;8.10;99.90
30628;DHT22;17394;50.890;4.724;2023-04-24T05:22:20;8.10;99.90
30628;DHT22;17394;50.890;4.724;2023-04-24T05:24:46;8.00;99.90
30628;DHT22;17394;50.890;4.724;2023-04-24T05:27:12;8.00;99.90
30628;DHT22;17394;50.890;4.724;2023-04-24T05:29:38;8.00;99.90
30628;DHT22;17394;50.890;4.724;2023-04-24T05:32:03;8.00;99.90
30628;DHT22;17394;50.890;4.724;2023-04-24T05:34:29;8.00;99.90
30628;DHT22;17394;50.890;4.724;2023-04-24T05:36:55;8.00;99.90
30628;DHT22;17394;50.890;4.724;2023-04-24T05:39:21;8.00;99.90
30628;DHT22;17394;50.890;4.724;2023-04-24T05:41:46;8.00;99.90
30628;DHT22;17394;50.890;4.724;2023-04-24T05:44:12;8.00;99.90
30628;DHT22;17394;50.890;4.724;2023-04-24T05:46:38;8.00;99.90
30628;DHT22;17394;50.890;4.724;2023-04-24T05:49:03;7.90;99.90
30628;DHT22;17394;50.890;4.724;2023-04-24T05:51:29;7.90;99.90
30628;DHT22;17394;50.890;4.724;2023-04-24T05:53:54;7.80;99.90
30628;DHT22;17394;50.890;4.724;2023-04-24T05:56:20;7.90;99.90
30628;DHT22;17394;50.890;4.724;2023-04-24T05:58:46;7.90;99.90
30628;DHT22;17394;50.890;4.724;2023-04-24T06:01:12;7.80;99.90
30628;DHT22;17394;50.890;4.724;2023-04-24T06:03:40;7.80;99.90
30628;DHT22;17394;50.890;4.724;2023-04-24T06:06:06;7.80;99.90
30628;DHT22;17394;50.890;4.724;2023-04-24T06:08:32;7.80;99.90
30628;DHT22;17394;50.890;4.724;2023-04-24T06:10:58;7.80;99.90
30628;DHT22;17394;50.890;4.724;2023-04-24T06:13:23;7.70;99.90
30628;DHT22;17394;50.890;4.724;2023-04-24T06:15:49;7.80;99.90
30628;DHT22;17394;50.890;4.724;2023-04-24T06:18:15;7.80;99.90
30628;DHT22;17394;50.890;4.724;2023-04-24T06:20:41;7.80;99.90
30628;DHT22;17394;50.890;4.724;2023-04-24T06:23:07;7.80;99.90
30628;DHT22;17394;50.890;4.724;2023-04-24T06:25:32;7.80;99.90
30628;DHT22;17394;50.890;4.724;2023-04-24T06:27:58;7.80;99.90
30628;DHT22;17394;50.890;4.724;2023-04-24T06:30:24;7.80;99.90
30628;DHT22;17394;50.890;4.724;2023-04-24T06:32:50;7.80;99.90
30628;DHT22;17394;50.890;4.724;2023-04-24T06:35:15;7.80;99.90
30628;DHT22;17394;50.890;4.724;2023-04-24T06:37:42;7.80;99.90
30628;DHT22;17394;50.890;4.724;2023-04-24T06:40:07;7.80;99.90
30628;DHT22;17394;50.890;4.724;2023-04-24T06:42:33;7.80;99.90
30628;DHT22;17394;50.890;4.724;2023-04-24T06:45:00;7.80;99.90
30628;DHT22;17394;50.890;4.724;2023-04-24T06:47:26;7.80;99.90
30628;DHT22;17394;50.890;4.724;2023-04-24T06:49:51;7.90;99.90
30628;DHT22;17394;50.890;4.724;2023-04-24T06:52:18;7.90;99.90
30628;DHT22;17394;50.890;4.724;2023-04-24T06:54:45;7.90;99.90
30628;DHT22;17394;50.890;4.724;2023-04-24T06:57:11;7.90;99.90
30628;DHT22;17394;50.890;4.724;2023-04-24T06:59:37;7.90;99.90
30628;DHT22;17394;50.890;4.724;2023-04-24T07:02:03;8.00;99.90
30628;DHT22;17394;50.890;4.724;2023-04-24T07:04:28;8.00;99.90
30628;DHT22;17394;50.890;4.724;2023-04-24T07:06:54;8.00;99.90
30628;DHT22;17394;50.890;4.724;2023-04-24T07:09:21;8.10;99.90
30628;DHT22;17394;50.890;4.724;2023-04-24T07:11:47;8.10;99.90
30628;DHT22;17394;50.890;4.724;2023-04-24T07:14:13;8.10;99.90
30628;DHT22;17394;50.890;4.724;2023-04-24T07:16:39;8.20;99.90
30628;DHT22;17394;50.890;4.724;2023-04-24T07:19:05;8.20;99.90
30628;DHT22;17394;50.890;4.724;2023-04-24T07:21:30;8.30;99.90
30628;DHT22;17394;50.890;4.724;2023-04-24T07:24:00;8.40;99.90
30628;DHT22;17394;50.890;4.724;2023-04-24T07:26:26;8.40;99.90
30628;DHT22;17394;50.890;4.724;2023-04-24T07:28:52;8.40;99.90
30628;DHT22;17394;50.890;4.724;2023-04-24T07:31:18;8.40;99.90
30628;DHT22;17394;50.890;4.724;2023-04-24T07:33:44;8.40;99.90
30628;DHT22;17394;50.890;4.724;2023-04-24T07:36:09;8.40;99.90
30628;DHT22;17394;50.890;4.724;2023-04-24T07:38:41;8.40;99.90
30628;DHT22;17394;50.890;4.724;2023-04-24T07:41:07;8.40;99.90
30628;DHT22;17394;50.890;4.724;2023-04-24T07:43:33;8.40;99.90
30628;DHT22;17394;50.890;4.724;2023-04-24T07:45:58;8.40;99.90
30628;DHT22;17394;50.890;4.724;2023-04-24T07:48:25;8.40;99.90
30628;DHT22;17394;50.890;4.724;2023-04-24T07:50:52;8.30;99.90
30628;DHT22;17394;50.890;4.724;2023-04-24T07:53:17;8.30;99.90
30628;DHT22;17394;50.890;4.724;2023-04-24T07:55:43;8.30;99.90
30628;DHT22;17394;50.890;4.724;2023-04-24T07:58:09;8.30;99.90
30628;DHT22;17394;50.890;4.724;2023-04-24T08:00:35;8.40;99.90
30628;DHT22;17394;50.890;4.724;2023-04-24T08:03:00;8.40;99.90
30628;DHT22;17394;50.890;4.724;2023-04-24T08:05:26;8.40;99.90
30628;DHT22;17394;50.890;4.724;2023-04-24T08:07:54;8.50;99.90
30628;DHT22;17394;50.890;4.724;2023-04-24T08:10:20;8.50;99.90
30628;DHT22;17394;50.890;4.724;2023-04-24T08:12:46;8.70;99.90
30628;DHT22;17394;50.890;4.724;2023-04-24T08:15:12;8.90;99.90
30628;DHT22;17394;50.890;4.724;2023-04-24T08:17:37;9.20;99.90
30628;DHT22;17394;50.890;4.724;2023-04-24T08:20:03;9.40;99.90
30628;DHT22;17394;50.890;4.724;2023-04-24T08:22:30;9.50;99.90
30628;DHT22;17394;50.890;4.724;2023-04-24T08:24:56;9.50;99.90
30628;DHT22;17394;50.890;4.724;2023-04-24T08:27:22;9.50;99.90
30628;DHT22;17394;50.890;4.724;2023-04-24T08:29:48;9.50;99.90
30628;DHT22;17394;50.890;4.724;2023-04-24T08:32:14;9.40;99.90
30628;DHT22;17394;50.890;4.724;2023-04-24T08:34:40;9.50;99.90
30628;DHT22;17394;50.890;4.724;2023-04-24T08:37:06;9.50;99.90
30628;DHT22;17394;50.890;4.724;2023-04-24T08:39:31;9.50;99.90
30628;DHT22;17394;50.890;4.724;2023-04-24T08:41:57;9.40;99.90
30628;DHT22;17394;50.890;4.724;2023-04-24T08:44:33;9.30;99.90
30628;DHT22;17394;50.890;4.724;2023-04-24T08:47:00;9.30;99.90
30628;DHT22;17394;50.890;4.724;2023-04-24T08:49:27;9.30;99.90
30628;DHT22;17394;50.890;4.724;2023-04-24T08:51:53;9.40;99.90
30628;DHT22;17394;50.890;4.724;2023-04-24T08:54:20;9.60;99.90
30628;DHT22;17394;50.890;4.724;2023-04-24T08:56:45;9.90;99.90
30628;DHT22;17394;50.890;4.724;2023-04-24T08:59:13;10.00;99.90
30628;DHT22;17394;50.890;4.724;2023-04-24T09:01:39;10.20;99.90
30628;DHT22;17394;50.890;4.724;2023-04-24T09:04:05;10.50;99.90
30628;DHT22;17394;50.890;4.724;2023-04-24T09:06:31;10.90;99.90
30628;DHT22;17394;50.890;4.724;2023-04-24T09:08:59;10.80;99.90
30628;DHT22;17394;50.890;4.724;2023-04-24T09:11:25;10.60;99.90
30628;DHT22;17394;50.890;4.724;2023-04-24T09:13:52;10.30;99.90
30628;DHT22;17394;50.890;4.724;2023-04-24T09:16:19;10.10;99.90
30628;DHT22;17394;50.890;4.724;2023-04-24T09:18:44;10.00;99.90
30628;DHT22;17394;50.890;4.724;2023-04-24T09:21:10;10.00;99.90
30628;DHT22;17394;50.890;4.724;2023-04-24T09:23:36;10.00;99.90
30628;DHT22;17394;50.890;4.724;2023-04-24T09:26:02;10.00;99.90
30628;DHT22;17394;50.890;4.724;2023-04-24T09:31:02;10.20;99.90
30628;DHT22;17394;50.890;4.724;2023-04-24T09:33:28;10.60;99.90
30628;DHT22;17394;50.890;4.724;2023-04-24T09:35:53;10.80;99.90
30628;DHT22;17394;50.890;4.724;2023-04-24T09:38:19;10.90;99.90
30628;DHT22;17394;50.890;4.724;2023-04-24T09:40:55;11.20;99.90
30628;DHT22;17394;50.890;4.724;2023-04-24T09:43:24;11.60;99.90
30628;DHT22;17394;50.890;4.724;2023-04-24T09:45:52;11.70;99.90
30628;DHT22;17394;50.890;4.724;2023-04-24T09:48:20;11.60;99.90
30628;DHT22;17394;50.890;4.724;2023-04-24T09:50:54;11.40;99.90
30628;DHT22;17394;50.890;4.724;2023-04-24T09:53:23;11.10;99.90
30628;DHT22;17394;50.890;4.724;2023-04-24T09:55:49;10.90;99.90
30628;DHT22;17394;50.890;4.724;2023-04-24T09:58:15;10.70;99.90
30628;DHT22;17394;50.890;4.724;2023-04-24T10:00:41;10.70;99.90
30628;DHT22;17394;50.890;4.724;2023-04-24T10:03:07;10.60;99.90
30628;DHT22;17394;50.890;4.724;2023-04-24T10:05:34;10.80;99.90
30628;DHT22;17394;50.890;4.724;2023-04-24T10:08:03;11.10;99.90
30628;DHT22;17394;50.890;4.724;2023-04-24T10:10:29;11.40;99.90
30628;DHT22;17394;50.890;4.724;2023-04-24T10:12:55;11.60;99.90
30628;DHT22;17394;50.890;4.724;2023-04-24T10:15:21;11.70;99.90
30628;DHT22;17394;50.890;4.724;2023-04-24T10:17:50;11.90;99.90
30628;DHT22;17394;50.890;4.724;2023-04-24T10:20:19;11.70;99.90
30628;DHT22;17394;50.890;4.724;2023-04-24T10:22:46;11.50;99.90
30628;DHT22;17394;50.890;4.724;2023-04-24T10:25:16;11.30;99.90
30628;DHT22;17394;50.890;4.724;2023-04-24T10:27:42;11.20;99.90
30628;DHT22;17394;50.890;4.724;2023-04-24T10:30:08;11.20;99.90
30628;DHT22;17394;50.890;4.724;2023-04-24T10:32:34;11.30;99.90
30628;DHT22;17394;50.890;4.724;2023-04-24T10:35:00;11.60;99.90
30628;DHT22;17394;50.890;4.724;2023-04-24T10:37:26;11.90;99.90
30628;DHT22;17394;50.890;4.724;2023-04-24T10:39:52;12.20;99.90
30628;DHT22;17394;50.890;4.724;2023-04-24T10:42:20;12.40;99.90
30628;DHT22;17394;50.890;4.724;2023-04-24T10:44:47;12.50;99.90
30628;DHT22;17394;50.890;4.724;2023-04-24T10:47:13;12.60;99.90
30628;DHT22;17394;50.890;4.724;2023-04-24T10:49:39;12.60;99.90
30628;DHT22;17394;50.890;4.724;2023-04-24T10:52:05;12.60;99.90
30628;DHT22;17394;50.890;4.724;2023-04-24T11:02:36;12.30;99.90
30628;DHT22;17394;50.890;4.724;2023-04-24T11:05:05;12.10;99.90
30628;DHT22;17394;50.890;4.724;2023-04-24T11:10:28;12.10;99.90
30628;DHT22;17394;50.890;4.724;2023-04-24T11:12:53;12.10;99.90
30628;DHT22;17394;50.890;4.724;2023-04-24T11:15:19;12.10;99.90
30628;DHT22;17394;50.890;4.724;2023-04-24T11:17:45;12.10;99.90
30628;DHT22;17394;50.890;4.724;2023-04-24T11:20:11;12.10;99.90
30628;DHT22;17394;50.890;4.724;2023-04-24T11:22:38;12.20;99.90
30628;DHT22;17394;50.890;4.724;2023-04-24T11:25:05;12.30;99.90
30628;DHT22;17394;50.890;4.724;2023-04-24T11:27:43;12.30;99.90
30628;DHT22;17394;50.890;4.724;2023-04-24T11:30:10;12.50;99.90
30628;DHT22;17394;50.890;4.724;2023-04-24T11:32:37;12.60;99.90
30628;DHT22;17394;50.890;4.724;2023-04-24T11:35:13;12.60;99.90
30628;DHT22;17394;50.890;4.724;2023-04-24T11:37:41;12.60;99.90
30628;DHT22;17394;50.890;4.724;2023-04-24T11:40:10;12.60;99.90
30628;DHT22;17394;50.890;4.724;2023-04-24T11:42:37;12.50;99.90
30628;DHT22;17394;50.890;4.724;2023-04-24T11:45:10;12.60;99.90
30628;DHT22;17394;50.890;4.724;2023-04-24T11:47:36;12.80;99.90
30628;DHT22;17394;50.890;4.724;2023-04-24T11:50:03;13.00;99.90
30628;DHT22;17394;50.890;4.724;2023-04-24T11:52:29;13.10;99.90
30628;DHT22;17394;50.890;4.724;2023-04-24T11:54:55;13.10;99.90
30628;DHT22;17394;50.890;4.724;2023-04-24T11:57:24;13.10;99.90
30628;DHT22;17394;50.890;4.724;2023-04-24T11:59:53;13.20;99.90
30628;DHT22;17394;50.890;4.724;2023-04-24T12:02:25;13.30;99.90
30628;DHT22;17394;50.890;4.724;2023-04-24T12:04:52;13.20;99.90
30628;DHT22;17394;50.890;4.724;2023-04-24T12:07:18;13.20;99.90
30628;DHT22;17394;50.890;4.724;2023-04-24T12:09:44;13.20;99.90
30628;DHT22;17394;50.890;4.724;2023-04-24T12:12:11;13.30;99.90
30628;DHT22;17394;50.890;4.724;2023-04-24T12:14:58;13.40;99.90
30628;DHT22;17394;50.890;4.724;2023-04-24T12:17:32;13.30;99.90
30628;DHT22;17394;50.890;4.724;2023-04-24T12:19:59;13.30;99.90
30628;DHT22;17394;50.890;4.724;2023-04-24T12:22:25;13.30;99.90
30628;DHT22;17394;50.890;4.724;2023-04-24T12:24:58;13.40;99.90
30628;DHT22;17394;50.890;4.724;2023-04-24T12:27:24;13.40;99.90
30628;DHT22;17394;50.890;4.724;2023-04-24T12:29:56;13.40;99.90
30628;DHT22;17394;50.890;4.724;2023-04-24T12:32:22;13.60;99.90
30628;DHT22;17394;50.890;4.724;2023-04-24T12:34:52;13.70;99.90
30628;DHT22;17394;50.890;4.724;2023-04-24T12:37:18;14.00;99.90
30628;DHT22;17394;50.890;4.724;2023-04-24T12:40:05;14.40;99.90
30628;DHT22;17394;50.890;4.724;2023-04-24T12:42:31;14.90;99.90
30628;DHT22;17394;50.890;4.724;2023-04-24T12:45:00;15.40;99.90
30628;DHT22;17394;50.890;4.724;2023-04-24T12:47:27;15.40;99.90
30628;DHT22;17394;50.890;4.724;2023-04-24T12:49:52;15.20;99.90
30628;DHT22;17394;50.890;4.724;2023-04-24T12:52:18;15.10;99.90
30628;DHT22;17394;50.890;4.724;2023-04-24T12:54:45;15.20;99.90
30628;DHT22;17394;50.890;4.724;2023-04-24T12:57:11;15.40;99.90
30628;DHT22;17394;50.890;4.724;2023-04-24T12:59:37;15.40;99.90
30628;DHT22;17394;50.890;4.724;2023-04-24T13:02:04;15.50;99.90
30628;DHT22;17394;50.890;4.724;2023-04-24T13:04:30;15.70;99.90
30628;DHT22;17394;50.890;4.724;2023-04-24T13:06:56;15.70;99.90
30628;DHT22;17394;50.890;4.724;2023-04-24T13:09:21;15.60;99.90
30628;DHT22;17394;50.890;4.724;2023-04-24T13:11:47;15.60;99.90
30628;DHT22;17394;50.890;4.724;2023-04-24T13:14:12;15.40;99.90
30628;DHT22;17394;50.890;4.724;2023-04-24T13:16:38;15.00;99.90
30628;DHT22;17394;50.890;4.724;2023-04-24T13:19:04;14.60;99.90
30628;DHT22;17394;50.890;4.724;2023-04-24T13:21:29;14.20;99.90
30628;DHT22;17394;50.890;4.724;2023-04-24T13:23:55;13.90;99.90
30628;DHT22;17394;50.890;4.724;2023-04-24T13:26:21;13.60;99.90
30628;DHT22;17394;50.890;4.724;2023-04-24T13:28:46;13.40;99.90
30628;DHT22;17394;50.890;4.724;2023-04-24T13:31:12;13.30;99.90
30628;DHT22;17394;50.890;4.724;2023-04-24T13:33:39;13.20;99.90
30628;DHT22;17394;50.890;4.724;2023-04-24T13:36:05;13.30;99.90
30628;DHT22;17394;50.890;4.724;2023-04-24T13:38:31;13.40;99.90
30628;DHT22;17394;50.890;4.724;2023-04-24T13:40:56;13.50;99.90
30628;DHT22;17394;50.890;4.724;2023-04-24T13:43:22;13.70;99.90
30628;DHT22;17394;50.890;4.724;2023-04-24T13:45:48;13.90;99.90
30628;DHT22;17394;50.890;4.724;2023-04-24T13:48:13;14.00;99.90
30628;DHT22;17394;50.890;4.724;2023-04-24T13:50:41;14.30;99.90
30628;DHT22;17394;50.890;4.724;2023-04-24T13:53:07;14.60;99.90
30628;DHT22;17394;50.890;4.724;2023-04-24T13:55:32;14.90;99.90
30628;DHT22;17394;50.890;4.724;2023-04-24T13:57:58;15.00;99.90
30628;DHT22;17394;50.890;4.724;2023-04-24T14:00:24;15.10;99.90
30628;DHT22;17394;50.890;4.724;2023-04-24T14:02:49;15.00;99.90
30628;DHT22;17394;50.890;4.724;2023-04-24T14:05:15;14.80;99.90
30628;DHT22;17394;50.890;4.724;2023-04-24T14:07:41;14.60;99.90
30628;DHT22;17394;50.890;4.724;2023-04-24T14:10:07;14.50;99.90
30628;DHT22;17394;50.890;4.724;2023-04-24T14:12:33;14.40;99.90
30628;DHT22;17394;50.890;4.724;2023-04-24T14:14:59;14.40;99.90
30628;DHT22;17394;50.890;4.724;2023-04-24T14:17:24;14.50;99.90
30628;DHT22;17394;50.890;4.724;2023-04-24T14:19:50;14.50;99.90
30628;DHT22;17394;50.890;4.724;2023-04-24T14:22:17;14.50;99.90
30628;DHT22;17394;50.890;4.724;2023-04-24T14:24:43;14.40;99.90
30628;DHT22;17394;50.890;4.724;2023-04-24T14:27:08;14.20;99.90
30628;DHT22;17394;50.890;4.724;2023-04-24T14:29:34;14.10;99.90
30628;DHT22;17394;50.890;4.724;2023-04-24T14:32:00;14.50;99.90
30628;DHT22;17394;50.890;4.724;2023-04-24T14:34:29;14.70;99.90
30628;DHT22;17394;50.890;4.724;2023-04-24T14:36:55;14.90;99.90
30628;DHT22;17394;50.890;4.724;2023-04-24T14:39:21;15.10;99.90
30628;DHT22;17394;50.890;4.724;2023-04-24T14:41:46;15.30;99.90
30628;DHT22;17394;50.890;4.724;2023-04-24T14:44:12;15.10;99.90
30628;DHT22;17394;50.890;4.724;2023-04-24T14:46:37;14.60;99.90
30628;DHT22;17394;50.890;4.724;2023-04-24T14:49:03;14.30;99.90
30628;DHT22;17394;50.890;4.724;2023-04-24T14:51:29;14.10;99.90
30628;DHT22;17394;50.890;4.724;2023-04-24T14:53:55;14.10;99.90
30628;DHT22;17394;50.890;4.724;2023-04-24T14:56:21;13.90;99.90
30628;DHT22;17394;50.890;4.724;2023-04-24T14:58:48;13.70;99.90
30628;DHT22;17394;50.890;4.724;2023-04-24T15:01:14;13.60;99.90
30628;DHT22;17394;50.890;4.724;2023-04-24T15:03:39;13.50;99.90
30628;DHT22;17394;50.890;4.724;2023-04-24T15:06:05;13.20;99.90
30628;DHT22;17394;50.890;4.724;2023-04-24T15:08:30;13.10;99.90
30628;DHT22;17394;50.890;4.724;2023-04-24T15:10:56;13.00;99.90
30628;DHT22;17394;50.890;4.724;2023-04-24T15:13:22;13.00;99.90
30628;DHT22;17394;50.890;4.724;2023-04-24T15:15:47;13.00;99.90
30628;DHT22;17394;50.890;4.724;2023-04-24T15:18:13;13.00;99.90
30628;DHT22;17394;50.890;4.724;2023-04-24T15:20:39;12.90;99.90
30628;DHT22;17394;50.890;4.724;2023-04-24T15:23:05;12.90;99.90
30628;DHT22;17394;50.890;4.724;2023-04-24T15:25:30;12.80;99.90
30628;DHT22;17394;50.890;4.724;2023-04-24T15:27:58;12.80;99.90
30628;DHT22;17394;50.890;4.724;2023-04-24T15:30:24;12.80;99.90
30628;DHT22;17394;50.890;4.724;2023-04-24T15:32:50;12.90;99.90
30628;DHT22;17394;50.890;4.724;2023-04-24T15:35:15;12.90;99.90
30628;DHT22;17394;50.890;4.724;2023-04-24T15:37:41;13.10;99.90
30628;DHT22;17394;50.890;4.724;2023-04-24T15:40:07;13.20;99.90
30628;DHT22;17394;50.890;4.724;2023-04-24T15:42:33;13.20;99.90
30628;DHT22;17394;50.890;4.724;2023-04-24T15:44:59;13.20;99.90
30628;DHT22;17394;50.890;4.724;2023-04-24T15:47:25;13.20;99.90